createdAt,value
2019-04-11T02:28:34.891Z,50.20
2019-04-11T02:31:09.052Z,50.00
2019-04-11T02:33:41.386Z,49.30
2019-04-11T02:36:13.604Z,49.90
2019-04-11T02:38:46.796Z,49.40
2019-04-11T02:41:18.800Z,48.70
2019-04-11T02:43:51.000Z,48.20
2019-04-11T02:46:34.644Z,48.10
2019-04-11T02:48:56.482Z,46.40
2019-04-11T02:51:28.830Z,47.30
2019-04-11T02:53:59.183Z,47.00
2019-04-11T02:56:31.219Z,47.20
2019-04-11T02:59:04.486Z,45.70
2019-04-11T03:01:36.362Z,45.80
2019-04-11T03:04:08.208Z,44.00
2019-04-11T03:06:39.871Z,44.00
2019-04-11T03:09:13.156Z,43.70
2019-04-11T03:11:45.076Z,44.10
2019-04-11T03:14:16.901Z,43.90
2019-04-11T03:16:57.292Z,44.00
2019-04-11T03:19:37.568Z,42.70
2019-04-11T03:21:54.609Z,43.00
2019-04-11T03:24:27.146Z,43.70
2019-04-11T03:27:02.766Z,43.90
2019-04-11T03:29:33.774Z,43.20
2019-04-11T03:32:41.993Z,43.40
2019-04-11T03:35:31.697Z,43.10
2019-04-11T03:37:38.638Z,42.40
2019-04-11T03:40:09.025Z,40.50
2019-04-11T03:42:34.162Z,38.60
2019-04-11T03:45:09.761Z,38.70
2019-04-11T03:47:34.826Z,39.50
2019-04-11T03:50:01.472Z,39.40
2019-04-11T03:52:26.396Z,38.40
2019-04-11T03:54:58.883Z,37.90
2019-04-11T03:57:31.696Z,36.40
2019-04-11T04:00:04.235Z,37.40
2019-04-11T04:02:37.136Z,37.60
2019-04-11T04:05:10.487Z,38.30
2019-04-11T04:07:41.788Z,36.10
2019-04-11T04:10:15.734Z,37.50
2019-04-11T04:12:47.505Z,37.60
2019-04-11T04:15:37.824Z,37.40
2019-04-11T04:17:55.200Z,37.90
2019-04-11T04:20:29.040Z,37.80
2019-04-11T04:23:03.204Z,38.20
2019-04-11T04:25:34.716Z,37.20
2019-04-11T04:28:07.334Z,37.80
2019-04-11T04:30:40.528Z,36.00
2019-04-11T04:33:12.961Z,37.10
2019-04-11T04:35:44.715Z,35.50
2019-04-11T04:38:16.474Z,35.40
2019-04-11T04:41:00.418Z,35.90
2019-04-11T04:43:22.682Z,34.90
2019-04-11T04:46:08.780Z,34.60
2019-04-11T04:48:27.221Z,34.20
2019-04-11T04:51:05.174Z,35.00
2019-04-11T04:53:33.025Z,34.40
2019-04-11T04:56:04.139Z,35.10
2019-04-11T04:58:35.516Z,35.60
2019-04-11T05:01:07.121Z,35.60
2019-04-11T05:03:38.241Z,36.40
2019-04-11T05:06:10.138Z,36.60
2019-04-11T05:08:41.132Z,37.10
2019-04-11T05:11:13.825Z,36.90
2019-04-11T05:13:48.547Z,37.70
2019-04-11T05:16:17.780Z,35.30
2019-04-11T05:18:48.480Z,34.60
2019-04-11T05:21:19.666Z,35.10
2019-04-11T05:23:50.405Z,32.20
2019-04-11T05:26:21.538Z,33.10
2019-04-11T05:28:53.010Z,34.80
2019-04-11T05:31:24.820Z,36.60
2019-04-11T05:33:56.091Z,35.00
2019-04-11T05:36:28.306Z,35.50
2019-04-11T05:39:00.310Z,34.40
2019-04-11T05:41:32.004Z,34.80
2019-04-11T05:44:08.486Z,34.40
2019-04-11T05:46:47.253Z,34.60
2019-04-11T05:49:09.279Z,31.30
2019-04-11T05:51:45.654Z,33.20
2019-04-11T05:54:14.504Z,33.80
2019-04-11T05:56:50.423Z,33.70
2019-04-11T05:59:18.843Z,32.30
2019-04-11T06:01:53.007Z,32.70
2019-04-11T06:04:27.213Z,33.00
2019-04-11T06:07:00.070Z,31.80
2019-04-11T06:09:37.286Z,31.40
2019-04-11T06:12:07.457Z,32.50
2019-04-11T06:14:40.115Z,31.40
2019-04-11T06:17:14.230Z,31.10
2019-04-11T06:19:45.868Z,31.50
2019-04-11T06:22:19.679Z,32.10
2019-04-11T06:24:52.184Z,32.20
2019-04-11T06:27:25.186Z,31.90
2019-04-11T06:29:57.533Z,32.50
2019-04-11T06:32:30.201Z,30.20
2019-04-11T06:35:01.894Z,31.60
2019-04-11T06:37:36.071Z,32.30
2019-04-11T06:40:10.100Z,32.90
2019-04-11T06:42:43.377Z,32.10
2019-04-11T06:45:15.806Z,32.10
2019-04-11T06:47:49.228Z,30.80
2019-04-11T06:50:22.886Z,30.80
2019-04-11T06:52:54.602Z,31.20
2019-04-11T06:55:26.834Z,30.50
2019-04-11T06:57:59.108Z,31.30
2019-04-11T07:00:31.455Z,31.60
2019-04-11T07:03:04.092Z,32.20
2019-04-11T07:05:36.357Z,32.30
2019-04-11T07:08:08.187Z,32.90
2019-04-11T07:10:40.673Z,32.10
2019-04-11T07:13:12.756Z,31.90
2019-04-11T07:15:44.898Z,30.90
2019-04-11T07:18:18.233Z,31.10
2019-04-11T07:20:50.593Z,33.10
2019-04-11T07:23:24.242Z,32.50
2019-04-11T07:25:56.619Z,33.00
2019-04-11T07:28:29.477Z,32.50
2019-04-11T07:31:02.397Z,30.80
2019-04-11T07:33:33.623Z,30.90
2019-04-11T07:36:05.972Z,30.20
2019-04-11T07:38:38.880Z,30.90
2019-04-11T07:41:11.318Z,29.60
2019-04-11T07:43:43.216Z,29.10
2019-04-11T07:46:15.504Z,28.90
2019-04-11T07:48:46.925Z,29.40
2019-04-11T07:51:19.648Z,28.10
2019-04-11T07:53:50.841Z,28.10
2019-04-11T07:56:23.193Z,28.50
2019-04-11T07:58:56.416Z,28.50
2019-04-11T08:01:29.440Z,28.80
2019-04-11T08:04:01.751Z,30.40
2019-04-11T08:06:34.065Z,30.00
2019-04-11T08:09:07.184Z,28.80
2019-04-11T08:11:40.057Z,28.70
2019-04-11T08:14:12.618Z,29.70
2019-04-11T08:16:45.070Z,30.70
2019-04-11T08:19:20.308Z,30.30
2019-04-11T08:21:52.483Z,30.50
2019-04-11T08:24:26.916Z,30.00
2019-04-11T08:26:58.822Z,30.10
2019-04-11T08:29:30.740Z,29.80
2019-04-11T08:32:04.569Z,29.60
2019-04-11T08:34:37.697Z,29.10
2019-04-11T08:37:09.372Z,28.90
2019-04-11T08:39:41.567Z,29.30
2019-04-11T08:42:14.976Z,28.70
2019-04-11T08:44:45.985Z,29.00
2019-04-11T08:47:18.232Z,28.90
2019-04-11T08:49:50.182Z,29.60
2019-04-11T08:52:22.557Z,28.20
2019-04-11T08:54:55.731Z,28.20
2019-04-11T08:57:28.237Z,28.00
2019-04-11T09:00:01.708Z,28.00
2019-04-11T09:02:35.359Z,27.80
2019-04-11T09:05:14.670Z,28.70
2019-04-11T09:07:43.456Z,29.10
2019-04-11T09:10:17.832Z,27.90
2019-04-11T09:12:50.959Z,29.50
2019-04-11T09:15:24.429Z,28.30
2019-04-11T09:18:04.278Z,28.80
2019-04-11T09:20:31.682Z,29.30
2019-04-11T09:23:03.770Z,28.70
2019-04-11T09:25:36.955Z,29.10
2019-04-11T09:28:09.416Z,28.90
2019-04-11T09:30:41.183Z,29.80
2019-04-11T09:33:14.944Z,29.20
2019-04-11T09:38:42.346Z,28.40
2019-04-11T09:41:16.398Z,29.00
2019-04-11T09:43:48.359Z,28.30
2019-04-11T09:46:22.085Z,28.80
2019-04-11T09:48:54.599Z,29.10
2019-04-11T09:51:29.183Z,29.30
2019-04-11T09:54:01.506Z,29.10
2019-04-11T09:56:33.831Z,28.70
2019-04-11T09:59:06.806Z,29.10
2019-04-11T10:01:38.007Z,29.40
2019-04-11T10:04:10.838Z,29.60
2019-04-11T10:06:42.336Z,28.90
2019-04-11T10:09:13.542Z,29.00
2019-04-11T10:11:46.329Z,29.40
2019-04-11T10:14:18.131Z,30.10
2019-04-11T10:16:50.615Z,29.70
2019-04-11T10:19:24.334Z,29.30
2019-04-11T10:21:56.909Z,29.60
2019-04-11T10:24:30.423Z,30.30
2019-04-11T10:27:03.091Z,30.90
2019-04-11T10:29:36.264Z,31.20
2019-04-11T10:32:08.722Z,31.50
2019-04-11T10:34:41.757Z,31.20
2019-04-11T10:37:15.766Z,31.30
2019-04-11T10:39:49.211Z,31.80
2019-04-11T10:42:20.368Z,32.00
2019-04-11T10:44:52.628Z,32.10
2019-04-11T10:47:25.099Z,32.40
2019-04-11T10:49:57.138Z,33.30
2019-04-11T10:52:29.355Z,32.80
2019-04-11T10:55:01.313Z,32.90
2019-04-11T10:57:33.569Z,33.20
2019-04-11T11:00:07.086Z,33.30
2019-04-11T11:02:39.813Z,33.20
2019-04-11T11:05:12.818Z,33.30
2019-04-11T11:07:45.764Z,33.40
2019-04-11T11:10:17.806Z,33.60
2019-04-11T11:12:50.244Z,33.60
2019-04-11T11:15:23.288Z,33.70
2019-04-11T11:18:25.132Z,33.90
2019-04-11T11:20:31.239Z,34.20
2019-04-11T11:23:00.146Z,34.30
2019-04-11T11:25:33.024Z,34.80
